sensor_id;sensor_type;location;lat;lon;timestamp;P1;durP1;ratioP1;P2;durP2;ratioP2
38117;SDS011;23928;47.562;7.508;2023-04-03T00:01:05;13.17;;;9.00;;
38117;SDS011;23928;47.562;7.508;2023-04-03T00:03:31;13.40;;;8.87;;
38117;SDS011;23928;47.562;7.508;2023-04-03T00:05:58;12.20;;;9.40;;
38117;SDS011;23928;47.562;7.508;2023-04-03T00:08:23;11.80;;;9.10;;
38117;SDS011;23928;47.562;7.508;2023-04-03T00:10:49;12.30;;;9.20;;
38117;SDS011;23928;47.562;7.508;2023-04-03T00:13:15;11.83;;;8.83;;
38117;SDS011;23928;47.562;7.508;2023-04-03T00:15:41;12.83;;;8.97;;
38117;SDS011;23928;47.562;7.508;2023-04-03T00:18:07;13.47;;;9.10;;
38117;SDS011;23928;47.562;7.508;2023-04-03T00:20:33;11.60;;;9.53;;
38117;SDS011;23928;47.562;7.508;2023-04-03T00:22:59;11.87;;;9.10;;
38117;SDS011;23928;47.562;7.508;2023-04-03T00:25:26;11.33;;;8.43;;
38117;SDS011;23928;47.562;7.508;2023-04-03T00:27:51;13.97;;;8.23;;
38117;SDS011;23928;47.562;7.508;2023-04-03T00:30:18;11.07;;;8.57;;
38117;SDS011;23928;47.562;7.508;2023-04-03T00:32:47;10.40;;;7.93;;
38117;SDS011;23928;47.562;7.508;2023-04-03T00:35:13;10.03;;;8.00;;
38117;SDS011;23928;47.562;7.508;2023-04-03T00:37:41;9.13;;;7.30;;
38117;SDS011;23928;47.562;7.508;2023-04-03T00:40:07;8.83;;;6.80;;
38117;SDS011;23928;47.562;7.508;2023-04-03T00:42:34;10.17;;;7.47;;
38117;SDS011;23928;47.562;7.508;2023-04-03T00:47:27;8.40;;;7.20;;
38117;SDS011;23928;47.562;7.508;2023-04-03T00:49:54;7.70;;;6.37;;
38117;SDS011;23928;47.562;7.508;2023-04-03T00:52:21;9.03;;;7.20;;
38117;SDS011;23928;47.562;7.508;2023-04-03T00:54:51;7.70;;;6.20;;
38117;SDS011;23928;47.562;7.508;2023-04-03T00:57:21;8.90;;;5.80;;
38117;SDS011;23928;47.562;7.508;2023-04-03T00:59:49;6.70;;;5.40;;
38117;SDS011;23928;47.562;7.508;2023-04-03T01:02:17;6.20;;;5.60;;
38117;SDS011;23928;47.562;7.508;2023-04-03T01:04:43;7.50;;;5.30;;
38117;SDS011;23928;47.562;7.508;2023-04-03T01:07:10;6.97;;;5.57;;
38117;SDS011;23928;47.562;7.508;2023-04-03T01:09:37;7.23;;;5.27;;
38117;SDS011;23928;47.562;7.508;2023-04-03T01:12:13;7.13;;;5.37;;
38117;SDS011;23928;47.562;7.508;2023-04-03T01:14:44;6.27;;;5.63;;
38117;SDS011;23928;47.562;7.508;2023-04-03T01:17:32;5.20;;;4.57;;
38117;SDS011;23928;47.562;7.508;2023-04-03T01:25:25;6.57;;;5.10;;
38117;SDS011;23928;47.562;7.508;2023-04-03T01:27:51;6.87;;;4.70;;
38117;SDS011;23928;47.562;7.508;2023-04-03T01:30:18;6.67;;;4.90;;
38117;SDS011;23928;47.562;7.508;2023-04-03T01:32:45;5.97;;;4.40;;
38117;SDS011;23928;47.562;7.508;2023-04-03T01:35:11;4.93;;;4.47;;
38117;SDS011;23928;47.562;7.508;2023-04-03T01:37:37;5.50;;;4.50;;
38117;SDS011;23928;47.562;7.508;2023-04-03T01:40:03;5.83;;;5.03;;
38117;SDS011;23928;47.562;7.508;2023-04-03T01:42:30;5.53;;;4.40;;
38117;SDS011;23928;47.562;7.508;2023-04-03T01:44:56;6.90;;;4.30;;
38117;SDS011;23928;47.562;7.508;2023-04-03T01:47:21;5.73;;;4.43;;
38117;SDS011;23928;47.562;7.508;2023-04-03T01:49:47;5.33;;;4.40;;
38117;SDS011;23928;47.562;7.508;2023-04-03T01:52:12;4.90;;;4.13;;
38117;SDS011;23928;47.562;7.508;2023-04-03T01:54:38;5.03;;;4.50;;
38117;SDS011;23928;47.562;7.508;2023-04-03T01:57:04;5.53;;;4.60;;
38117;SDS011;23928;47.562;7.508;2023-04-03T01:59:29;5.17;;;4.40;;
38117;SDS011;23928;47.562;7.508;2023-04-03T02:01:55;6.70;;;4.83;;
38117;SDS011;23928;47.562;7.508;2023-04-03T02:04:21;8.33;;;4.80;;
38117;SDS011;23928;47.562;7.508;2023-04-03T02:06:47;5.60;;;4.83;;
38117;SDS011;23928;47.562;7.508;2023-04-03T02:09:13;5.20;;;4.43;;
38117;SDS011;23928;47.562;7.508;2023-04-03T02:11:38;5.43;;;4.60;;
38117;SDS011;23928;47.562;7.508;2023-04-03T02:14:04;4.23;;;3.83;;
38117;SDS011;23928;47.562;7.508;2023-04-03T02:16:30;6.70;;;3.97;;
38117;SDS011;23928;47.562;7.508;2023-04-03T02:18:56;5.37;;;4.30;;
38117;SDS011;23928;47.562;7.508;2023-04-03T02:21:21;7.87;;;4.33;;
38117;SDS011;23928;47.562;7.508;2023-04-03T02:23:47;4.43;;;4.03;;
38117;SDS011;23928;47.562;7.508;2023-04-03T02:26:14;6.37;;;4.23;;
38117;SDS011;23928;47.562;7.508;2023-04-03T02:28:40;4.60;;;3.73;;
38117;SDS011;23928;47.562;7.508;2023-04-03T02:31:06;6.77;;;3.97;;
38117;SDS011;23928;47.562;7.508;2023-04-03T02:33:33;6.30;;;3.57;;
38117;SDS011;23928;47.562;7.508;2023-04-03T02:36:01;4.67;;;3.77;;
38117;SDS011;23928;47.562;7.508;2023-04-03T02:38:28;5.60;;;3.87;;
38117;SDS011;23928;47.562;7.508;2023-04-03T02:40:59;4.90;;;3.50;;
38117;SDS011;23928;47.562;7.508;2023-04-03T02:43:29;5.77;;;3.93;;
38117;SDS011;23928;47.562;7.508;2023-04-03T02:45:55;6.00;;;4.10;;
38117;SDS011;23928;47.562;7.508;2023-04-03T02:48:21;4.60;;;3.80;;
38117;SDS011;23928;47.562;7.508;2023-04-03T02:50:47;5.63;;;4.00;;
38117;SDS011;23928;47.562;7.508;2023-04-03T02:53:13;4.40;;;4.00;;
38117;SDS011;23928;47.562;7.508;2023-04-03T02:55:38;4.67;;;3.77;;
38117;SDS011;23928;47.562;7.508;2023-04-03T02:58:04;6.40;;;4.23;;
38117;SDS011;23928;47.562;7.508;2023-04-03T03:00:30;3.90;;;3.30;;
38117;SDS011;23928;47.562;7.508;2023-04-03T03:02:56;6.37;;;4.10;;
38117;SDS011;23928;47.562;7.508;2023-04-03T03:05:21;6.37;;;3.87;;
38117;SDS011;23928;47.562;7.508;2023-04-03T03:07:47;6.47;;;4.47;;
38117;SDS011;23928;47.562;7.508;2023-04-03T03:10:13;4.60;;;3.50;;
38117;SDS011;23928;47.562;7.508;2023-04-03T03:12:38;4.33;;;3.93;;
38117;SDS011;23928;47.562;7.508;2023-04-03T03:15:05;6.40;;;4.20;;
38117;SDS011;23928;47.562;7.508;2023-04-03T03:17:32;4.40;;;4.00;;
38117;SDS011;23928;47.562;7.508;2023-04-03T03:19:57;4.80;;;4.30;;
38117;SDS011;23928;47.562;7.508;2023-04-03T03:22:23;4.30;;;3.63;;
38117;SDS011;23928;47.562;7.508;2023-04-03T03:24:49;7.83;;;3.83;;
38117;SDS011;23928;47.562;7.508;2023-04-03T03:27:14;4.97;;;4.03;;
38117;SDS011;23928;47.562;7.508;2023-04-03T03:29:41;5.30;;;3.73;;
38117;SDS011;23928;47.562;7.508;2023-04-03T03:32:07;5.93;;;3.73;;
38117;SDS011;23928;47.562;7.508;2023-04-03T03:34:32;6.23;;;3.80;;
38117;SDS011;23928;47.562;7.508;2023-04-03T03:36:58;5.83;;;3.27;;
38117;SDS011;23928;47.562;7.508;2023-04-03T03:39:24;4.40;;;3.70;;
38117;SDS011;23928;47.562;7.508;2023-04-03T03:41:49;7.43;;;4.13;;
38117;SDS011;23928;47.562;7.508;2023-04-03T03:44:15;4.67;;;3.50;;
38117;SDS011;23928;47.562;7.508;2023-04-03T03:46:41;4.13;;;3.73;;
38117;SDS011;23928;47.562;7.508;2023-04-03T03:49:07;4.40;;;3.83;;
38117;SDS011;23928;47.562;7.508;2023-04-03T03:51:32;4.10;;;3.47;;
38117;SDS011;23928;47.562;7.508;2023-04-03T03:53:58;4.80;;;3.50;;
38117;SDS011;23928;47.562;7.508;2023-04-03T03:56:23;5.90;;;3.63;;
38117;SDS011;23928;47.562;7.508;2023-04-03T03:58:50;4.70;;;3.27;;
38117;SDS011;23928;47.562;7.508;2023-04-03T04:01:15;4.77;;;3.73;;
38117;SDS011;23928;47.562;7.508;2023-04-03T04:03:42;4.53;;;3.60;;
38117;SDS011;23928;47.562;7.508;2023-04-03T04:06:07;4.50;;;3.60;;
38117;SDS011;23928;47.562;7.508;2023-04-03T04:08:33;5.13;;;3.50;;
38117;SDS011;23928;47.562;7.508;2023-04-03T04:10:59;5.60;;;3.23;;
38117;SDS011;23928;47.562;7.508;2023-04-03T04:13:24;4.83;;;3.23;;
38117;SDS011;23928;47.562;7.508;2023-04-03T04:15:50;5.07;;;3.67;;
38117;SDS011;23928;47.562;7.508;2023-04-03T04:18:16;4.63;;;3.90;;
38117;SDS011;23928;47.562;7.508;2023-04-03T04:20:44;6.93;;;3.37;;
38117;SDS011;23928;47.562;7.508;2023-04-03T04:23:10;5.17;;;3.37;;
38117;SDS011;23928;47.562;7.508;2023-04-03T04:25:36;3.40;;;3.10;;
38117;SDS011;23928;47.562;7.508;2023-04-03T04:28:02;4.23;;;3.40;;
38117;SDS011;23928;47.562;7.508;2023-04-03T04:30:27;5.00;;;4.13;;
38117;SDS011;23928;47.562;7.508;2023-04-03T04:32:53;6.37;;;3.70;;
38117;SDS011;23928;47.562;7.508;2023-04-03T04:35:19;4.07;;;3.67;;
38117;SDS011;23928;47.562;7.508;2023-04-03T04:37:45;4.40;;;3.87;;
38117;SDS011;23928;47.562;7.508;2023-04-03T04:40:10;5.23;;;4.17;;
38117;SDS011;23928;47.562;7.508;2023-04-03T04:42:36;4.67;;;3.50;;
38117;SDS011;23928;47.562;7.508;2023-04-03T04:45:02;5.23;;;3.00;;
38117;SDS011;23928;47.562;7.508;2023-04-03T04:47:28;7.73;;;4.63;;
38117;SDS011;23928;47.562;7.508;2023-04-03T04:49:54;6.70;;;4.17;;
38117;SDS011;23928;47.562;7.508;2023-04-03T04:52:20;5.20;;;3.80;;
38117;SDS011;23928;47.562;7.508;2023-04-03T04:54:46;3.90;;;3.50;;
38117;SDS011;23928;47.562;7.508;2023-04-03T04:57:11;4.73;;;3.53;;
38117;SDS011;23928;47.562;7.508;2023-04-03T04:59:37;14.37;;;11.60;;
38117;SDS011;23928;47.562;7.508;2023-04-03T05:02:03;6.37;;;3.97;;
38117;SDS011;23928;47.562;7.508;2023-04-03T05:04:28;3.90;;;3.50;;
38117;SDS011;23928;47.562;7.508;2023-04-03T05:06:54;4.30;;;3.80;;
38117;SDS011;23928;47.562;7.508;2023-04-03T05:09:20;5.73;;;4.43;;
38117;SDS011;23928;47.562;7.508;2023-04-03T05:11:46;5.50;;;3.97;;
38117;SDS011;23928;47.562;7.508;2023-04-03T05:14:12;4.57;;;3.73;;
38117;SDS011;23928;47.562;7.508;2023-04-03T05:16:37;5.73;;;3.97;;
38117;SDS011;23928;47.562;7.508;2023-04-03T05:19:03;5.03;;;3.50;;
38117;SDS011;23928;47.562;7.508;2023-04-03T05:21:29;5.13;;;4.00;;
38117;SDS011;23928;47.562;7.508;2023-04-03T05:23:57;5.03;;;3.80;;
38117;SDS011;23928;47.562;7.508;2023-04-03T05:26:24;5.17;;;3.80;;
38117;SDS011;23928;47.562;7.508;2023-04-03T05:28:51;9.33;;;4.20;;
38117;SDS011;23928;47.562;7.508;2023-04-03T05:31:16;6.70;;;4.40;;
38117;SDS011;23928;47.562;7.508;2023-04-03T05:33:42;6.07;;;3.77;;
38117;SDS011;23928;47.562;7.508;2023-04-03T05:36:07;4.80;;;3.73;;
38117;SDS011;23928;47.562;7.508;2023-04-03T05:38:33;4.77;;;4.17;;
38117;SDS011;23928;47.562;7.508;2023-04-03T05:40:59;5.30;;;4.20;;
38117;SDS011;23928;47.562;7.508;2023-04-03T05:43:25;6.67;;;4.03;;
38117;SDS011;23928;47.562;7.508;2023-04-03T05:45:51;4.77;;;3.83;;
38117;SDS011;23928;47.562;7.508;2023-04-03T05:48:17;6.23;;;4.57;;
38117;SDS011;23928;47.562;7.508;2023-04-03T05:50:43;5.97;;;4.13;;
38117;SDS011;23928;47.562;7.508;2023-04-03T05:53:19;5.60;;;3.93;;
38117;SDS011;23928;47.562;7.508;2023-04-03T05:55:47;5.37;;;4.27;;
38117;SDS011;23928;47.562;7.508;2023-04-03T05:58:13;9.07;;;4.77;;
38117;SDS011;23928;47.562;7.508;2023-04-03T06:00:38;5.40;;;4.40;;
38117;SDS011;23928;47.562;7.508;2023-04-03T06:03:04;5.20;;;4.17;;
38117;SDS011;23928;47.562;7.508;2023-04-03T06:05:31;7.20;;;5.03;;
38117;SDS011;23928;47.562;7.508;2023-04-03T06:07:56;5.80;;;4.40;;
38117;SDS011;23928;47.562;7.508;2023-04-03T06:10:22;5.37;;;4.47;;
38117;SDS011;23928;47.562;7.508;2023-04-03T06:12:48;6.27;;;4.30;;
38117;SDS011;23928;47.562;7.508;2023-04-03T06:15:13;9.70;;;4.73;;
38117;SDS011;23928;47.562;7.508;2023-04-03T06:17:39;8.50;;;4.60;;
38117;SDS011;23928;47.562;7.508;2023-04-03T06:20:05;4.90;;;4.27;;
38117;SDS011;23928;47.562;7.508;2023-04-03T06:22:31;5.50;;;4.30;;
38117;SDS011;23928;47.562;7.508;2023-04-03T06:24:57;7.30;;;4.53;;
38117;SDS011;23928;47.562;7.508;2023-04-03T06:27:22;5.87;;;4.47;;
38117;SDS011;23928;47.562;7.508;2023-04-03T06:29:49;5.83;;;4.23;;
38117;SDS011;23928;47.562;7.508;2023-04-03T06:32:15;5.77;;;4.60;;
38117;SDS011;23928;47.562;7.508;2023-04-03T06:34:41;6.47;;;4.47;;
38117;SDS011;23928;47.562;7.508;2023-04-03T06:37:10;7.33;;;4.80;;
38117;SDS011;23928;47.562;7.508;2023-04-03T06:39:43;7.17;;;5.40;;
38117;SDS011;23928;47.562;7.508;2023-04-03T06:42:10;5.70;;;4.73;;
38117;SDS011;23928;47.562;7.508;2023-04-03T06:44:35;7.13;;;5.43;;
38117;SDS011;23928;47.562;7.508;2023-04-03T06:47:01;6.37;;;5.00;;
38117;SDS011;23928;47.562;7.508;2023-04-03T06:49:27;9.53;;;5.97;;
38117;SDS011;23928;47.562;7.508;2023-04-03T06:51:54;6.57;;;5.03;;
38117;SDS011;23928;47.562;7.508;2023-04-03T06:54:20;5.37;;;4.83;;
38117;SDS011;23928;47.562;7.508;2023-04-03T06:56:46;9.37;;;5.53;;
38117;SDS011;23928;47.562;7.508;2023-04-03T06:59:12;8.53;;;5.40;;
38117;SDS011;23928;47.562;7.508;2023-04-03T07:01:38;5.70;;;5.17;;
38117;SDS011;23928;47.562;7.508;2023-04-03T07:04:04;7.10;;;5.10;;
38117;SDS011;23928;47.562;7.508;2023-04-03T07:06:30;9.67;;;4.80;;
38117;SDS011;23928;47.562;7.508;2023-04-03T07:08:57;5.53;;;5.00;;
38117;SDS011;23928;47.562;7.508;2023-04-03T07:11:23;6.00;;;4.47;;
38117;SDS011;23928;47.562;7.508;2023-04-03T07:13:50;6.53;;;4.80;;
38117;SDS011;23928;47.562;7.508;2023-04-03T07:16:16;5.83;;;4.80;;
38117;SDS011;23928;47.562;7.508;2023-04-03T07:18:41;6.50;;;4.70;;
38117;SDS011;23928;47.562;7.508;2023-04-03T07:21:07;7.47;;;5.20;;
38117;SDS011;23928;47.562;7.508;2023-04-03T07:23:33;5.83;;;4.60;;
38117;SDS011;23928;47.562;7.508;2023-04-03T07:25:58;7.63;;;5.10;;
38117;SDS011;23928;47.562;7.508;2023-04-03T07:28:24;5.80;;;4.47;;
38117;SDS011;23928;47.562;7.508;2023-04-03T07:31:33;8.07;;;5.20;;
38117;SDS011;23928;47.562;7.508;2023-04-03T07:33:42;5.77;;;4.50;;
38117;SDS011;23928;47.562;7.508;2023-04-03T07:36:08;5.83;;;5.23;;
38117;SDS011;23928;47.562;7.508;2023-04-03T07:38:35;7.00;;;4.83;;
38117;SDS011;23928;47.562;7.508;2023-04-03T07:41:01;9.73;;;5.50;;
38117;SDS011;23928;47.562;7.508;2023-04-03T07:43:27;6.30;;;4.73;;
38117;SDS011;23928;47.562;7.508;2023-04-03T07:45:52;5.37;;;4.50;;
38117;SDS011;23928;47.562;7.508;2023-04-03T07:48:23;6.57;;;4.80;;
38117;SDS011;23928;47.562;7.508;2023-04-03T07:50:49;6.53;;;4.73;;
38117;SDS011;23928;47.562;7.508;2023-04-03T07:53:15;5.10;;;4.60;;
38117;SDS011;23928;47.562;7.508;2023-04-03T07:55:41;7.93;;;4.33;;
38117;SDS011;23928;47.562;7.508;2023-04-03T07:58:10;4.90;;;4.40;;
38117;SDS011;23928;47.562;7.508;2023-04-03T08:00:38;7.47;;;4.83;;
38117;SDS011;23928;47.562;7.508;2023-04-03T08:03:04;6.90;;;5.20;;
38117;SDS011;23928;47.562;7.508;2023-04-03T08:05:31;5.23;;;4.70;;
38117;SDS011;23928;47.562;7.508;2023-04-03T08:08:01;6.13;;;4.93;;
38117;SDS011;23928;47.562;7.508;2023-04-03T08:10:27;7.53;;;4.60;;
38117;SDS011;23928;47.562;7.508;2023-04-03T08:12:55;8.07;;;5.27;;
38117;SDS011;23928;47.562;7.508;2023-04-03T08:15:20;6.53;;;4.87;;
38117;SDS011;23928;47.562;7.508;2023-04-03T08:17:46;6.87;;;5.00;;
38117;SDS011;23928;47.562;7.508;2023-04-03T08:20:12;6.53;;;5.53;;
38117;SDS011;23928;47.562;7.508;2023-04-03T08:22:38;7.40;;;5.43;;
38117;SDS011;23928;47.562;7.508;2023-04-03T08:25:03;7.13;;;5.30;;
38117;SDS011;23928;47.562;7.508;2023-04-03T08:27:30;8.53;;;5.27;;
38117;SDS011;23928;47.562;7.508;2023-04-03T08:29:56;7.87;;;5.70;;
38117;SDS011;23928;47.562;7.508;2023-04-03T08:32:22;7.83;;;5.13;;
38117;SDS011;23928;47.562;7.508;2023-04-03T08:34:48;5.33;;;4.83;;
38117;SDS011;23928;47.562;7.508;2023-04-03T08:37:13;9.57;;;6.63;;
38117;SDS011;23928;47.562;7.508;2023-04-03T08:39:41;7.93;;;5.20;;
38117;SDS011;23928;47.562;7.508;2023-04-03T08:50:58;5.53;;;4.43;;
38117;SDS011;23928;47.562;7.508;2023-04-03T08:53:29;8.50;;;4.60;;
38117;SDS011;23928;47.562;7.508;2023-04-03T08:55:58;8.60;;;4.97;;
38117;SDS011;23928;47.562;7.508;2023-04-03T08:58:33;7.17;;;5.03;;
38117;SDS011;23928;47.562;7.508;2023-04-03T09:01:19;6.17;;;5.33;;
38117;SDS011;23928;47.562;7.508;2023-04-03T09:03:50;5.57;;;5.00;;
38117;SDS011;23928;47.562;7.508;2023-04-03T09:06:23;6.90;;;5.63;;
38117;SDS011;23928;47.562;7.508;2023-04-03T09:11:52;7.03;;;5.40;;
38117;SDS011;23928;47.562;7.508;2023-04-03T09:14:46;8.50;;;5.17;;
38117;SDS011;23928;47.562;7.508;2023-04-03T09:20:37;6.47;;;5.17;;
38117;SDS011;23928;47.562;7.508;2023-04-03T09:23:53;8.03;;;5.67;;
38117;SDS011;23928;47.562;7.508;2023-04-03T09:26:18;8.77;;;6.13;;
38117;SDS011;23928;47.562;7.508;2023-04-03T09:28:51;7.33;;;6.10;;
38117;SDS011;23928;47.562;7.508;2023-04-03T09:31:20;6.43;;;5.03;;
38117;SDS011;23928;47.562;7.508;2023-04-03T09:33:49;6.53;;;5.53;;
38117;SDS011;23928;47.562;7.508;2023-04-03T09:39:24;4.93;;;4.37;;
38117;SDS011;23928;47.562;7.508;2023-04-03T09:42:03;6.07;;;4.87;;
38117;SDS011;23928;47.562;7.508;2023-04-03T09:44:56;7.97;;;5.37;;
38117;SDS011;23928;47.562;7.508;2023-04-03T09:52:44;6.57;;;5.17;;
38117;SDS011;23928;47.562;7.508;2023-04-03T09:55:23;5.63;;;4.97;;
38117;SDS011;23928;47.562;7.508;2023-04-03T09:58:00;5.30;;;4.80;;
38117;SDS011;23928;47.562;7.508;2023-04-03T10:02:57;6.83;;;5.60;;
38117;SDS011;23928;47.562;7.508;2023-04-03T10:05:44;4.87;;;4.10;;
38117;SDS011;23928;47.562;7.508;2023-04-03T10:10:38;5.57;;;3.87;;
38117;SDS011;23928;47.562;7.508;2023-04-03T10:13:12;5.27;;;4.07;;
38117;SDS011;23928;47.562;7.508;2023-04-03T10:15:45;4.50;;;3.90;;
38117;SDS011;23928;47.562;7.508;2023-04-03T10:18:49;4.30;;;3.80;;
38117;SDS011;23928;47.562;7.508;2023-04-03T10:24:23;5.50;;;3.60;;
38117;SDS011;23928;47.562;7.508;2023-04-03T10:26:57;4.57;;;3.57;;
38117;SDS011;23928;47.562;7.508;2023-04-03T10:35:31;4.30;;;3.10;;
38117;SDS011;23928;47.562;7.508;2023-04-03T10:38:16;3.30;;;3.00;;
38117;SDS011;23928;47.562;7.508;2023-04-03T10:40:55;3.77;;;3.33;;
38117;SDS011;23928;47.562;7.508;2023-04-03T10:46:02;3.40;;;3.10;;
38117;SDS011;23928;47.562;7.508;2023-04-03T10:48:57;3.93;;;3.00;;
38117;SDS011;23928;47.562;7.508;2023-04-03T10:51:47;3.17;;;2.87;;
38117;SDS011;23928;47.562;7.508;2023-04-03T10:54:24;3.00;;;2.70;;
38117;SDS011;23928;47.562;7.508;2023-04-03T10:57:03;3.13;;;2.73;;
38117;SDS011;23928;47.562;7.508;2023-04-03T10:59:32;3.63;;;2.63;;
38117;SDS011;23928;47.562;7.508;2023-04-03T11:02:04;3.37;;;2.63;;
38117;SDS011;23928;47.562;7.508;2023-04-03T11:04:37;4.13;;;2.70;;
38117;SDS011;23928;47.562;7.508;2023-04-03T11:07:17;3.23;;;2.60;;
38117;SDS011;23928;47.562;7.508;2023-04-03T11:09:53;2.83;;;2.50;;
38117;SDS011;23928;47.562;7.508;2023-04-03T11:12:28;5.07;;;2.70;;
38117;SDS011;23928;47.562;7.508;2023-04-03T11:15:05;3.77;;;3.30;;
38117;SDS011;23928;47.562;7.508;2023-04-03T11:17:38;4.27;;;3.33;;
38117;SDS011;23928;47.562;7.508;2023-04-03T11:20:21;4.50;;;3.40;;
38117;SDS011;23928;47.562;7.508;2023-04-03T11:23:00;3.93;;;3.53;;
38117;SDS011;23928;47.562;7.508;2023-04-03T11:25:42;4.10;;;3.70;;
38117;SDS011;23928;47.562;7.508;2023-04-03T11:28:14;6.83;;;3.30;;
38117;SDS011;23928;47.562;7.508;2023-04-03T11:33:43;3.43;;;3.13;;
38117;SDS011;23928;47.562;7.508;2023-04-03T11:36:30;4.00;;;3.47;;
38117;SDS011;23928;47.562;7.508;2023-04-03T11:39:00;3.43;;;2.77;;
38117;SDS011;23928;47.562;7.508;2023-04-03T11:41:35;3.23;;;2.83;;
38117;SDS011;23928;47.562;7.508;2023-04-03T11:44:03;3.63;;;3.13;;
38117;SDS011;23928;47.562;7.508;2023-04-03T11:46:49;3.33;;;2.97;;
38117;SDS011;23928;47.562;7.508;2023-04-03T12:05:49;4.03;;;3.10;;
38117;SDS011;23928;47.562;7.508;2023-04-03T12:08:25;3.83;;;2.80;;
38117;SDS011;23928;47.562;7.508;2023-04-03T12:16:22;2.87;;;2.43;;
38117;SDS011;23928;47.562;7.508;2023-04-03T12:19:01;3.10;;;2.73;;
38117;SDS011;23928;47.562;7.508;2023-04-03T12:45:56;1.80;;;1.70;;
38117;SDS011;23928;47.562;7.508;2023-04-03T12:48:25;1.77;;;1.63;;
38117;SDS011;23928;47.562;7.508;2023-04-03T12:50:52;1.50;;;1.40;;
38117;SDS011;23928;47.562;7.508;2023-04-03T12:53:21;1.43;;;1.33;;
38117;SDS011;23928;47.562;7.508;2023-04-03T12:55:56;1.33;;;1.17;;
38117;SDS011;23928;47.562;7.508;2023-04-03T12:58:42;1.77;;;1.67;;
38117;SDS011;23928;47.562;7.508;2023-04-03T13:01:12;2.17;;;1.60;;
38117;SDS011;23928;47.562;7.508;2023-04-03T13:03:43;1.60;;;1.50;;
38117;SDS011;23928;47.562;7.508;2023-04-03T13:06:10;1.87;;;1.60;;
38117;SDS011;23928;47.562;7.508;2023-04-03T13:08:55;1.87;;;1.50;;
38117;SDS011;23928;47.562;7.508;2023-04-03T13:11:23;1.37;;;1.27;;
38117;SDS011;23928;47.562;7.508;2023-04-03T13:14:01;1.77;;;1.67;;
38117;SDS011;23928;47.562;7.508;2023-04-03T13:16:30;1.97;;;1.77;;
38117;SDS011;23928;47.562;7.508;2023-04-03T13:18:57;1.67;;;1.50;;
38117;SDS011;23928;47.562;7.508;2023-04-03T13:21:25;1.93;;;1.67;;
38117;SDS011;23928;47.562;7.508;2023-04-03T13:23:58;1.80;;;1.67;;
38117;SDS011;23928;47.562;7.508;2023-04-03T13:26:28;1.83;;;1.53;;
38117;SDS011;23928;47.562;7.508;2023-04-03T13:28:59;1.60;;;1.50;;
38117;SDS011;23928;47.562;7.508;2023-04-03T13:31:43;2.03;;;1.83;;
38117;SDS011;23928;47.562;7.508;2023-04-03T13:36:37;1.60;;;1.50;;
38117;SDS011;23928;47.562;7.508;2023-04-03T13:41:38;2.23;;;1.77;;
38117;SDS011;23928;47.562;7.508;2023-04-03T13:46:56;2.00;;;1.80;;
38117;SDS011;23928;47.562;7.508;2023-04-03T13:49:43;2.27;;;1.77;;
38117;SDS011;23928;47.562;7.508;2023-04-03T13:54:51;1.93;;;1.70;;
38117;SDS011;23928;47.562;7.508;2023-04-03T13:57:22;1.50;;;1.40;;
38117;SDS011;23928;47.562;7.508;2023-04-03T13:59:48;1.73;;;1.63;;
38117;SDS011;23928;47.562;7.508;2023-04-03T14:07:08;1.40;;;1.37;;
38117;SDS011;23928;47.562;7.508;2023-04-03T14:09:35;2.60;;;2.40;;
38117;SDS011;23928;47.562;7.508;2023-04-03T14:12:24;1.63;;;1.47;;
38117;SDS011;23928;47.562;7.508;2023-04-03T14:14:52;3.53;;;1.80;;
38117;SDS011;23928;47.562;7.508;2023-04-03T14:17:20;2.10;;;1.90;;
38117;SDS011;23928;47.562;7.508;2023-04-03T14:19:49;2.00;;;1.67;;
38117;SDS011;23928;47.562;7.508;2023-04-03T14:22:20;2.20;;;2.00;;
38117;SDS011;23928;47.562;7.508;2023-04-03T14:24:53;2.83;;;1.60;;
38117;SDS011;23928;47.562;7.508;2023-04-03T14:27:22;1.83;;;1.67;;
38117;SDS011;23928;47.562;7.508;2023-04-03T14:29:50;1.57;;;1.47;;
38117;SDS011;23928;47.562;7.508;2023-04-03T14:32:18;3.03;;;2.10;;
38117;SDS011;23928;47.562;7.508;2023-04-03T14:34:45;2.43;;;2.23;;
38117;SDS011;23928;47.562;7.508;2023-04-03T14:37:12;2.23;;;2.03;;
38117;SDS011;23928;47.562;7.508;2023-04-03T14:39:40;1.93;;;1.80;;
38117;SDS011;23928;47.562;7.508;2023-04-03T14:42:10;2.70;;;1.90;;
38117;SDS011;23928;47.562;7.508;2023-04-03T14:44:38;4.47;;;2.10;;
38117;SDS011;23928;47.562;7.508;2023-04-03T14:47:04;2.17;;;1.93;;
38117;SDS011;23928;47.562;7.508;2023-04-03T14:49:30;3.57;;;2.50;;
38117;SDS011;23928;47.562;7.508;2023-04-03T14:51:56;3.30;;;2.67;;
38117;SDS011;23928;47.562;7.508;2023-04-03T14:54:23;2.33;;;2.13;;
38117;SDS011;23928;47.562;7.508;2023-04-03T14:56:53;2.43;;;1.93;;
38117;SDS011;23928;47.562;7.508;2023-04-03T14:59:20;2.10;;;1.90;;
38117;SDS011;23928;47.562;7.508;2023-04-03T15:01:47;2.33;;;1.67;;
38117;SDS011;23928;47.562;7.508;2023-04-03T15:04:16;1.83;;;1.70;;
38117;SDS011;23928;47.562;7.508;2023-04-03T15:06:44;2.47;;;1.70;;
38117;SDS011;23928;47.562;7.508;2023-04-03T15:09:20;2.67;;;2.07;;
38117;SDS011;23928;47.562;7.508;2023-04-03T15:11:51;3.47;;;2.17;;
38117;SDS011;23928;47.562;7.508;2023-04-03T15:14:19;2.20;;;2.00;;
38117;SDS011;23928;47.562;7.508;2023-04-03T15:16:45;2.80;;;1.93;;
38117;SDS011;23928;47.562;7.508;2023-04-03T15:19:11;2.23;;;1.90;;
38117;SDS011;23928;47.562;7.508;2023-04-03T15:21:37;2.20;;;2.00;;
38117;SDS011;23928;47.562;7.508;2023-04-03T15:24:03;3.10;;;2.27;;
38117;SDS011;23928;47.562;7.508;2023-04-03T15:26:29;2.10;;;1.90;;
38117;SDS011;23928;47.562;7.508;2023-04-03T15:28:56;2.60;;;2.37;;
38117;SDS011;23928;47.562;7.508;2023-04-03T15:31:21;2.03;;;1.70;;
38117;SDS011;23928;47.562;7.508;2023-04-03T15:33:47;2.37;;;1.70;;
38117;SDS011;23928;47.562;7.508;2023-04-03T15:36:13;1.87;;;1.77;;
38117;SDS011;23928;47.562;7.508;2023-04-03T15:38:38;2.37;;;2.17;;
38117;SDS011;23928;47.562;7.508;2023-04-03T15:41:04;4.37;;;2.20;;
38117;SDS011;23928;47.562;7.508;2023-04-03T15:43:30;2.30;;;1.80;;
38117;SDS011;23928;47.562;7.508;2023-04-03T15:45:56;1.80;;;1.70;;
38117;SDS011;23928;47.562;7.508;2023-04-03T15:48:24;1.67;;;1.57;;
38117;SDS011;23928;47.562;7.508;2023-04-03T15:50:50;1.73;;;1.63;;
38117;SDS011;23928;47.562;7.508;2023-04-03T15:53:16;3.87;;;2.33;;
38117;SDS011;23928;47.562;7.508;2023-04-03T15:55:42;2.10;;;1.90;;
38117;SDS011;23928;47.562;7.508;2023-04-03T15:58:07;2.07;;;1.87;;
38117;SDS011;23928;47.562;7.508;2023-04-03T16:00:33;2.17;;;1.90;;
38117;SDS011;23928;47.562;7.508;2023-04-03T16:03:02;3.17;;;1.77;;
38117;SDS011;23928;47.562;7.508;2023-04-03T16:05:30;1.70;;;1.60;;
38117;SDS011;23928;47.562;7.508;2023-04-03T16:07:56;2.27;;;1.80;;
38117;SDS011;23928;47.562;7.508;2023-04-03T16:10:24;1.77;;;1.50;;
38117;SDS011;23928;47.562;7.508;2023-04-03T16:12:49;1.90;;;1.73;;
38117;SDS011;23928;47.562;7.508;2023-04-03T16:15:16;1.70;;;1.60;;
38117;SDS011;23928;47.562;7.508;2023-04-03T16:17:43;2.13;;;1.73;;
38117;SDS011;23928;47.562;7.508;2023-04-03T16:20:10;2.40;;;2.00;;
38117;SDS011;23928;47.562;7.508;2023-04-03T16:22:38;3.17;;;2.00;;
38117;SDS011;23928;47.562;7.508;2023-04-03T16:25:05;1.70;;;1.60;;
38117;SDS011;23928;47.562;7.508;2023-04-03T16:27:32;2.10;;;1.77;;
38117;SDS011;23928;47.562;7.508;2023-04-03T16:29:58;1.70;;;1.60;;
38117;SDS011;23928;47.562;7.508;2023-04-03T16:32:24;3.00;;;2.00;;
38117;SDS011;23928;47.562;7.508;2023-04-03T16:34:53;1.70;;;1.60;;
38117;SDS011;23928;47.562;7.508;2023-04-03T16:37:19;2.47;;;1.83;;
38117;SDS011;23928;47.562;7.508;2023-04-03T16:39:45;1.70;;;1.60;;
38117;SDS011;23928;47.562;7.508;2023-04-03T16:42:11;2.27;;;1.80;;
38117;SDS011;23928;47.562;7.508;2023-04-03T16:44:36;2.63;;;1.90;;
38117;SDS011;23928;47.562;7.508;2023-04-03T16:47:02;2.10;;;1.90;;
38117;SDS011;23928;47.562;7.508;2023-04-03T16:49:28;3.43;;;2.17;;